createdAt,value
2019-02-19T00:00:52.986Z,287.80
2019-02-19T00:03:20.921Z,289.80
2019-02-19T00:05:49.045Z,307.93
2019-02-19T00:08:17.165Z,295.57
2019-02-19T00:10:45.348Z,321.90
2019-02-19T00:13:15.047Z,314.90
2019-02-19T00:15:43.129Z,326.30
2019-02-19T00:18:11.049Z,311.93
2019-02-19T00:20:39.238Z,325.87
2019-02-19T00:23:07.165Z,324.17
2019-02-19T00:25:35.392Z,323.47
2019-02-19T00:28:03.311Z,329.20
2019-02-19T00:30:31.237Z,302.47
2019-02-19T00:32:59.274Z,332.67
2019-02-19T00:35:27.166Z,322.43
2019-02-19T00:37:55.132Z,336.97
2019-02-19T00:40:23.209Z,331.90
2019-02-19T00:42:51.272Z,326.87
2019-02-19T00:45:19.451Z,363.53
2019-02-19T00:47:47.596Z,370.07
2019-02-19T00:50:15.584Z,361.73
2019-02-19T00:52:43.898Z,329.70
2019-02-19T00:55:11.920Z,356.47
2019-02-19T00:57:39.913Z,324.17
2019-02-19T01:00:08.810Z,325.47
2019-02-19T01:02:36.837Z,332.27
2019-02-19T01:05:05.429Z,343.37
2019-02-19T01:07:33.389Z,314.13
2019-02-19T01:10:01.951Z,315.63
2019-02-19T01:12:29.922Z,314.47
2019-02-19T01:14:58.014Z,321.93
2019-02-19T01:17:26.188Z,319.23
2019-02-19T01:19:55.259Z,331.90
2019-02-19T01:22:23.169Z,352.93
2019-02-19T01:24:51.172Z,349.20
2019-02-19T01:27:19.133Z,347.27
2019-02-19T01:29:47.183Z,331.57
2019-02-19T01:32:15.230Z,345.07
2019-02-19T01:34:44.763Z,345.07
2019-02-19T01:37:12.721Z,361.63
2019-02-19T01:39:41.084Z,324.03
2019-02-19T01:42:09.760Z,347.13
2019-02-19T01:44:39.632Z,355.77
2019-02-19T01:47:07.792Z,333.47
2019-02-19T01:49:35.852Z,351.57
2019-02-19T01:52:03.949Z,361.77
2019-02-19T01:54:32.098Z,379.87
2019-02-19T01:57:00.207Z,327.87
2019-02-19T01:59:28.355Z,335.20
2019-02-19T02:01:57.841Z,331.27
2019-02-19T02:04:25.829Z,375.57
2019-02-19T02:06:53.812Z,336.87
2019-02-19T02:09:21.897Z,332.90
2019-02-19T02:11:50.065Z,357.17
2019-02-19T02:14:18.117Z,342.43
2019-02-19T02:16:46.136Z,367.03
2019-02-19T02:19:15.357Z,330.03
2019-02-19T02:21:43.284Z,335.20
2019-02-19T02:24:11.503Z,351.53
2019-02-19T02:26:39.523Z,324.90
2019-02-19T02:29:07.744Z,340.97
2019-02-19T02:31:35.974Z,360.47
2019-02-19T02:34:03.866Z,344.10
2019-02-19T02:36:31.782Z,331.73
2019-02-19T02:39:03.404Z,353.57
2019-02-19T02:41:31.413Z,346.80
2019-02-19T02:43:59.591Z,347.53
2019-02-19T02:46:27.476Z,364.37
2019-02-19T02:48:55.560Z,347.60
2019-02-19T02:51:23.530Z,362.97
2019-02-19T02:53:52.712Z,351.50
2019-02-19T02:56:20.584Z,361.23
2019-02-19T02:58:49.288Z,368.97
2019-02-19T03:01:17.250Z,360.17
2019-02-19T03:03:45.233Z,387.10
2019-02-19T03:06:21.831Z,395.30
2019-02-19T03:08:49.772Z,348.83
2019-02-19T03:11:17.999Z,369.13
2019-02-19T03:13:45.988Z,373.67
2019-02-19T03:16:14.052Z,348.87
2019-02-19T03:18:41.981Z,352.10
2019-02-19T03:21:09.888Z,365.43
2019-02-19T03:23:37.988Z,340.23
2019-02-19T03:26:05.857Z,334.40
2019-02-19T03:28:33.689Z,360.73
2019-02-19T03:31:01.567Z,349.90
2019-02-19T03:33:29.429Z,369.93
2019-02-19T03:35:57.375Z,360.83
2019-02-19T03:38:25.274Z,349.33
2019-02-19T03:40:53.199Z,352.33
2019-02-19T03:43:21.127Z,343.73
2019-02-19T03:45:48.993Z,348.33
2019-02-19T03:48:17.754Z,370.03
2019-02-19T03:50:45.712Z,345.10
2019-02-19T03:53:13.696Z,373.37
2019-02-19T03:55:43.672Z,400.30
2019-02-19T03:58:11.641Z,367.90
2019-02-19T04:00:39.428Z,329.33
2019-02-19T04:03:07.524Z,355.00
2019-02-19T04:05:35.592Z,337.50
2019-02-19T04:08:03.503Z,343.00
2019-02-19T04:10:31.358Z,360.00
2019-02-19T04:12:59.381Z,363.20
2019-02-19T04:15:27.303Z,389.97
2019-02-19T04:17:55.259Z,401.67
2019-02-19T04:20:23.277Z,365.83
2019-02-19T04:22:51.323Z,382.07
2019-02-19T04:25:19.143Z,370.57
2019-02-19T04:27:48.756Z,388.40
2019-02-19T04:30:17.384Z,368.90
2019-02-19T04:32:45.649Z,372.57
2019-02-19T04:35:14.822Z,373.07
2019-02-19T04:37:42.729Z,380.17
2019-02-19T04:40:10.781Z,370.73
2019-02-19T04:42:38.840Z,362.60
2019-02-19T04:45:07.044Z,375.60
2019-02-19T04:47:35.249Z,401.73
2019-02-19T04:50:04.288Z,369.83
2019-02-19T04:52:32.643Z,409.97
2019-02-19T04:55:01.624Z,425.97
2019-02-19T04:57:29.730Z,386.30
2019-02-19T04:59:57.999Z,393.17
2019-02-19T05:02:26.297Z,415.80
2019-02-19T05:04:58.174Z,396.60
2019-02-19T05:07:28.691Z,365.07
2019-02-19T05:10:03.672Z,401.27
2019-02-19T05:12:45.300Z,368.00
2019-02-19T05:15:10.539Z,392.70
2019-02-19T05:17:53.145Z,419.53
2019-02-19T05:20:32.368Z,389.57
2019-02-19T05:23:30.609Z,394.37
2019-02-19T05:26:15.183Z,395.53
2019-02-19T05:28:54.666Z,418.53
2019-02-19T05:31:38.876Z,404.87
2019-02-19T05:34:06.766Z,401.57
2019-02-19T05:36:35.621Z,380.53
2019-02-19T05:39:07.760Z,404.97
2019-02-19T05:41:37.053Z,411.13
2019-02-19T05:44:05.257Z,406.17
2019-02-19T05:46:35.433Z,388.40
2019-02-19T05:49:03.514Z,399.30
2019-02-19T05:51:31.700Z,391.33
2019-02-19T05:53:59.650Z,395.00
2019-02-19T05:56:28.198Z,398.83
2019-02-19T05:58:59.263Z,394.17
2019-02-19T06:01:30.863Z,405.17
2019-02-19T06:03:58.875Z,431.47
2019-02-19T06:06:26.894Z,424.40
2019-02-19T06:08:55.020Z,402.07
2019-02-19T06:11:22.630Z,387.30
2019-02-19T06:13:50.228Z,408.17
2019-02-19T06:16:17.826Z,395.47
2019-02-19T06:18:45.453Z,389.43
2019-02-19T06:21:13.031Z,408.67
2019-02-19T06:23:40.724Z,386.80
2019-02-19T06:26:08.410Z,380.87
2019-02-19T06:28:35.892Z,379.07
2019-02-19T06:31:03.592Z,412.80
2019-02-19T06:33:31.253Z,393.70
2019-02-19T06:35:58.737Z,398.93
2019-02-19T06:38:26.442Z,388.80
2019-02-19T06:40:54.012Z,403.53
2019-02-19T06:43:21.621Z,404.93
2019-02-19T06:45:49.580Z,386.97
2019-02-19T06:48:17.401Z,364.17
2019-02-19T06:50:45.018Z,384.40
2019-02-19T06:53:12.639Z,370.30
2019-02-19T06:55:40.337Z,370.67
2019-02-19T06:58:07.932Z,366.40
2019-02-19T07:00:36.178Z,342.97
2019-02-19T07:03:17.840Z,353.90
2019-02-19T07:05:45.498Z,344.13
2019-02-19T07:08:13.186Z,366.07
2019-02-19T07:10:40.732Z,360.27
2019-02-19T07:13:08.582Z,326.23
2019-02-19T07:15:36.183Z,337.97
2019-02-19T07:18:03.936Z,347.50
2019-02-19T07:20:31.988Z,357.30
2019-02-19T07:22:59.594Z,358.67
2019-02-19T07:25:28.392Z,363.53
2019-02-19T07:27:56.157Z,363.10
2019-02-19T07:30:23.850Z,347.37
2019-02-19T07:32:51.557Z,335.30
2019-02-19T07:35:20.808Z,345.10
2019-02-19T07:38:08.448Z,338.50
2019-02-19T07:40:41.146Z,335.30
2019-02-19T07:43:24.424Z,322.80
2019-02-19T07:45:56.256Z,329.03
2019-02-19T07:48:29.418Z,312.17
2019-02-19T07:50:59.040Z,290.63
2019-02-19T07:53:30.417Z,299.50
2019-02-19T07:56:00.578Z,273.60
2019-02-19T07:58:31.308Z,240.57
2019-02-19T08:00:59.297Z,154.70
2019-02-19T08:03:27.301Z,133.43
2019-02-19T08:05:55.259Z,139.07
2019-02-19T08:08:23.147Z,139.27
2019-02-19T08:10:51.084Z,116.23
2019-02-19T08:13:18.942Z,110.23
2019-02-19T08:15:46.874Z,117.43
2019-02-19T08:18:14.638Z,115.03
2019-02-19T08:20:42.480Z,111.90
2019-02-19T08:23:10.254Z,111.33
2019-02-19T08:25:38.011Z,102.30
2019-02-19T08:28:05.860Z,114.47
2019-02-19T08:30:33.562Z,99.60
2019-02-19T08:33:01.236Z,88.77
2019-02-19T08:35:29.044Z,99.47
2019-02-19T08:37:57.364Z,88.77
2019-02-19T08:40:25.094Z,90.93
2019-02-19T08:42:53.303Z,87.37
2019-02-19T08:45:21.327Z,83.70
2019-02-19T08:47:49.698Z,86.70
2019-02-19T08:50:18.568Z,85.43
2019-02-19T08:52:49.778Z,75.93
2019-02-19T08:55:18.355Z,77.00
2019-02-19T08:57:46.417Z,70.63
2019-02-19T09:00:14.672Z,75.87
2019-02-19T09:02:42.698Z,78.27
2019-02-19T09:05:11.072Z,71.87
2019-02-19T09:07:40.498Z,73.43
2019-02-19T09:10:11.596Z,73.80
2019-02-19T09:12:39.986Z,62.33
2019-02-19T09:15:08.736Z,67.43
2019-02-19T09:17:36.460Z,61.60
2019-02-19T09:20:04.777Z,68.90
2019-02-19T09:22:32.356Z,59.10
2019-02-19T09:25:00.058Z,55.27
2019-02-19T09:27:29.690Z,61.03
2019-02-19T09:29:57.308Z,56.13
2019-02-19T09:32:25.253Z,49.33
2019-02-19T09:34:53.279Z,52.53
2019-02-19T09:37:21.426Z,54.40
2019-02-19T09:39:49.069Z,58.53
2019-02-19T09:42:16.767Z,54.43
2019-02-19T09:44:44.370Z,59.53
2019-02-19T09:47:15.179Z,58.73
2019-02-19T09:49:42.828Z,56.17
2019-02-19T09:52:10.595Z,50.73
2019-02-19T09:54:39.665Z,49.83
2019-02-19T09:57:07.608Z,50.23
2019-02-19T09:59:35.457Z,46.13
2019-02-19T10:02:05.470Z,45.37
2019-02-19T10:04:33.319Z,45.90
2019-02-19T10:07:01.334Z,46.20
2019-02-19T10:09:29.336Z,47.00
2019-02-19T10:11:57.446Z,44.07
2019-02-19T10:14:25.476Z,44.67
2019-02-19T10:16:56.785Z,45.73
2019-02-19T10:19:26.031Z,43.60
2019-02-19T10:22:09.249Z,36.70
2019-02-19T10:25:00.558Z,43.57
2019-02-19T10:27:50.890Z,37.67
2019-02-19T10:30:22.592Z,44.47
2019-02-19T10:32:50.668Z,37.17
2019-02-19T10:35:19.038Z,41.03
2019-02-19T10:37:52.972Z,40.80
2019-02-19T10:40:21.209Z,40.77
2019-02-19T10:42:49.297Z,43.90
2019-02-19T10:45:17.985Z,47.40
2019-02-19T10:47:46.469Z,39.23
2019-02-19T10:50:14.735Z,41.00
2019-02-19T10:52:43.023Z,48.60
2019-02-19T10:55:11.653Z,46.97
2019-02-19T10:57:39.348Z,36.73
2019-02-19T11:00:10.556Z,36.20
2019-02-19T11:02:38.231Z,32.60
2019-02-19T11:05:05.942Z,34.87
2019-02-19T11:07:33.707Z,35.20
2019-02-19T11:10:02.034Z,33.23
2019-02-19T11:12:29.724Z,33.33
2019-02-19T11:14:57.320Z,32.03
2019-02-19T11:17:25.181Z,32.27
2019-02-19T11:19:52.896Z,32.30
2019-02-19T11:22:20.656Z,31.97
2019-02-19T11:24:48.391Z,33.17
2019-02-19T11:27:16.745Z,30.10
2019-02-19T11:29:44.549Z,30.97
2019-02-19T11:32:12.273Z,30.47
2019-02-19T11:34:40.197Z,29.17
2019-02-19T11:37:08.244Z,29.60
2019-02-19T11:39:36.088Z,29.87
2019-02-19T11:42:04.868Z,28.37
2019-02-19T11:44:32.544Z,30.73
2019-02-19T11:47:00.128Z,28.27
2019-02-19T11:49:27.769Z,27.27
2019-02-19T11:51:55.575Z,28.50
2019-02-19T11:54:23.310Z,31.23
2019-02-19T11:56:51.040Z,28.07
2019-02-19T11:59:18.844Z,28.13
2019-02-19T12:01:46.594Z,33.03
2019-02-19T12:04:14.280Z,27.40
2019-02-19T12:06:42.253Z,28.83
2019-02-19T12:09:10.294Z,27.17
2019-02-19T12:11:38.293Z,28.63
2019-02-19T12:14:07.601Z,26.40
2019-02-19T12:16:35.472Z,28.43
2019-02-19T12:19:07.546Z,30.73
2019-02-19T12:21:35.411Z,28.40
2019-02-19T12:24:03.246Z,28.47
2019-02-19T12:26:34.323Z,35.30
2019-02-19T12:29:02.170Z,28.90
2019-02-19T12:31:29.828Z,32.13
2019-02-19T12:33:57.598Z,30.43
2019-02-19T12:36:32.478Z,34.30
2019-02-19T12:39:01.677Z,26.17
2019-02-19T12:41:29.491Z,24.80
2019-02-19T12:43:57.590Z,39.77
2019-02-19T12:46:25.487Z,31.83
2019-02-19T12:48:54.871Z,29.23
2019-02-19T12:51:26.504Z,29.37
2019-02-19T12:53:52.682Z,39.23
2019-02-19T12:56:20.789Z,34.23
2019-02-19T12:58:48.929Z,29.37
2019-02-19T13:01:19.097Z,26.93
2019-02-19T13:03:47.158Z,28.63
2019-02-19T13:06:16.146Z,29.67
2019-02-19T13:08:46.797Z,31.80
2019-02-19T13:11:16.458Z,28.77
2019-02-19T13:13:44.834Z,27.13
2019-02-19T13:16:13.060Z,29.80
2019-02-19T13:18:41.438Z,29.60
2019-02-19T13:21:09.439Z,25.63
2019-02-19T13:23:37.235Z,28.40
2019-02-19T13:26:05.402Z,27.57
2019-02-19T13:28:33.232Z,29.20
2019-02-19T13:31:00.829Z,29.30
2019-02-19T13:33:28.806Z,25.20
2019-02-19T13:35:56.387Z,28.70
2019-02-19T13:38:23.936Z,29.50
2019-02-19T13:40:51.594Z,29.47
2019-02-19T13:43:19.329Z,27.70
2019-02-19T13:45:47.184Z,29.13
2019-02-19T13:48:14.839Z,26.83
2019-02-19T13:50:42.522Z,28.27
2019-02-19T13:53:14.558Z,26.67
2019-02-19T13:55:45.701Z,28.60
2019-02-19T13:58:13.403Z,27.13
2019-02-19T14:00:42.246Z,27.10
2019-02-19T14:03:09.820Z,29.30
2019-02-19T14:05:37.546Z,26.40
2019-02-19T14:08:13.986Z,27.90
2019-02-19T14:10:36.238Z,33.50
2019-02-19T14:13:04.032Z,29.20
2019-02-19T14:15:43.750Z,31.73
2019-02-19T14:18:12.211Z,28.07
2019-02-19T14:20:57.824Z,26.03
2019-02-19T14:23:43.353Z,27.17
2019-02-19T14:26:33.378Z,28.37
2019-02-19T14:29:26.152Z,29.13
2019-02-19T14:32:13.159Z,29.67
2019-02-19T14:34:59.536Z,27.07
2019-02-19T14:37:43.690Z,28.10
2019-02-19T14:40:49.142Z,25.30
2019-02-19T14:43:33.187Z,28.67
2019-02-19T14:46:23.141Z,32.70
2019-02-19T14:49:18.863Z,29.77
2019-02-19T14:52:08.662Z,27.33
2019-02-19T14:55:07.354Z,25.63
2019-02-19T14:57:44.071Z,29.37
2019-02-19T15:00:31.869Z,31.40
2019-02-19T15:03:31.140Z,26.03
2019-02-19T15:06:30.242Z,31.07
2019-02-19T15:09:08.832Z,31.90
2019-02-19T15:11:56.292Z,30.27
2019-02-19T15:14:43.816Z,31.00
2019-02-19T15:17:33.936Z,31.90
2019-02-19T15:20:18.683Z,31.40
2019-02-19T15:23:05.404Z,32.38
2019-02-19T15:26:10.547Z,31.27
2019-02-19T15:28:52.617Z,32.33
2019-02-19T15:31:48.698Z,32.63
2019-02-19T15:34:37.289Z,30.83
2019-02-19T15:37:33.314Z,30.30
2019-02-19T15:40:19.192Z,35.33
2019-02-19T15:43:09.334Z,32.57
2019-02-19T15:46:08.423Z,34.93
2019-02-19T15:49:14.652Z,34.80
2019-02-19T15:52:18.005Z,32.07
2019-02-19T15:55:22.013Z,32.87
2019-02-19T15:58:09.040Z,35.10
2019-02-19T16:01:06.535Z,32.57
2019-02-19T16:04:00.267Z,36.87
2019-02-19T16:06:55.286Z,34.13
2019-02-19T16:09:42.123Z,35.80
2019-02-19T16:12:32.039Z,34.40
2019-02-19T16:15:15.113Z,38.90
2019-02-19T16:18:05.508Z,37.83
2019-02-19T16:20:55.625Z,42.73
2019-02-19T16:23:44.078Z,37.20
2019-02-19T16:26:31.449Z,37.03
2019-02-19T16:29:26.461Z,40.63
2019-02-19T16:32:22.699Z,38.47
2019-02-19T16:35:17.890Z,37.83
2019-02-19T16:38:03.885Z,42.63
2019-02-19T16:40:39.782Z,42.77
2019-02-19T16:43:33.160Z,40.53
2019-02-19T16:46:23.740Z,40.40
2019-02-19T16:49:11.384Z,35.07
2019-02-19T16:52:11.018Z,38.70
2019-02-19T16:54:50.848Z,39.07
2019-02-19T16:57:32.561Z,41.77
2019-02-19T17:00:26.499Z,36.83
2019-02-19T17:03:10.441Z,42.57
2019-02-19T17:05:59.442Z,35.90
2019-02-19T17:08:56.586Z,36.00
2019-02-19T17:11:45.030Z,43.57
2019-02-19T17:14:36.685Z,38.10
2019-02-19T17:17:13.940Z,36.20
2019-02-19T17:20:26.247Z,41.90
2019-02-19T17:23:02.503Z,40.50
2019-02-19T17:26:00.657Z,40.97
2019-02-19T17:28:51.390Z,41.60
2019-02-19T17:31:33.808Z,44.27
2019-02-19T17:34:10.624Z,43.50
2019-02-19T17:36:52.665Z,45.50
2019-02-19T17:39:57.928Z,41.70
2019-02-19T17:42:39.920Z,44.87
2019-02-19T17:45:25.944Z,42.33
2019-02-19T17:48:28.559Z,41.43
2019-02-19T17:51:21.322Z,42.77
2019-02-19T17:54:27.016Z,45.70
2019-02-19T17:57:17.050Z,43.17
2019-02-19T18:00:06.070Z,46.33
2019-02-19T18:02:52.781Z,44.43
2019-02-19T18:05:52.182Z,41.33
2019-02-19T18:08:32.365Z,42.50
2019-02-19T18:11:18.727Z,47.00
2019-02-19T18:14:06.483Z,44.50
2019-02-19T18:17:01.961Z,46.27
2019-02-19T18:19:30.303Z,41.90
2019-02-19T18:21:58.720Z,40.30
2019-02-19T18:24:27.894Z,41.73
2019-02-19T18:26:56.062Z,45.07
2019-02-19T18:29:25.568Z,45.50
2019-02-19T18:32:01.611Z,45.33
2019-02-19T18:34:31.614Z,49.70
2019-02-19T18:37:37.661Z,45.30
2019-02-19T18:40:05.726Z,43.67
2019-02-19T18:42:38.178Z,52.10
2019-02-19T18:45:14.188Z,49.70
2019-02-19T18:47:46.243Z,48.03
2019-02-19T18:50:14.761Z,49.50
2019-02-19T18:52:42.899Z,49.70
2019-02-19T18:55:12.059Z,53.83
2019-02-19T18:57:40.303Z,52.00
2019-02-19T19:00:13.195Z,51.70
2019-02-19T19:02:49.329Z,55.50
2019-02-19T19:05:32.691Z,54.40
2019-02-19T19:07:55.886Z,52.77
2019-02-19T19:10:44.695Z,55.27
2019-02-19T19:13:17.856Z,58.30
2019-02-19T19:15:53.290Z,54.47
2019-02-19T19:18:27.677Z,57.77
2019-02-19T19:20:56.880Z,58.20
2019-02-19T19:23:59.391Z,59.93
2019-02-19T19:30:06.895Z,60.67
2019-02-19T19:32:36.888Z,55.20
2019-02-19T19:38:08.528Z,55.47
2019-02-19T19:41:02.825Z,54.57
2019-02-19T19:44:01.142Z,52.33
2019-02-19T19:46:31.808Z,50.70
2019-02-19T19:49:01.187Z,53.00
2019-02-19T19:51:29.580Z,53.33
2019-02-19T19:54:02.316Z,58.43
2019-02-19T19:56:34.389Z,56.93
2019-02-19T19:59:10.457Z,57.93
2019-02-19T20:01:48.625Z,59.83
2019-02-19T20:04:17.348Z,59.87
2019-02-19T20:06:56.978Z,63.70
2019-02-19T20:09:29.758Z,62.63
2019-02-19T20:12:28.749Z,57.97
2019-02-19T20:15:03.689Z,56.73
2019-02-19T20:17:46.422Z,55.80
2019-02-19T20:20:20.231Z,58.10
2019-02-19T20:22:50.576Z,57.13
2019-02-19T20:25:19.276Z,56.43
2019-02-19T20:27:49.803Z,54.50
2019-02-19T20:30:22.217Z,51.63
2019-02-19T20:32:51.266Z,54.67
2019-02-19T20:35:41.217Z,57.50
2019-02-19T20:38:06.025Z,54.47
2019-02-19T20:40:36.381Z,55.33
2019-02-19T20:43:11.950Z,52.07
2019-02-19T20:45:42.229Z,50.87
2019-02-19T20:48:10.525Z,51.63
2019-02-19T20:50:42.393Z,47.13
2019-02-19T20:53:16.010Z,49.80
2019-02-19T20:55:57.418Z,45.77
2019-02-19T21:01:14.704Z,50.90
2019-02-19T21:03:44.140Z,47.37
2019-02-19T21:06:21.939Z,47.13
2019-02-19T21:08:52.367Z,48.97
2019-02-19T21:11:35.592Z,46.50
2019-02-19T21:14:20.624Z,45.23
2019-02-19T21:16:52.187Z,46.57
2019-02-19T21:19:26.586Z,45.90
2019-02-19T21:21:56.727Z,43.53
2019-02-19T21:24:34.866Z,47.20
2019-02-19T21:27:08.802Z,47.40
2019-02-19T21:29:47.530Z,43.23
2019-02-19T21:32:23.022Z,46.83
2019-02-19T21:34:55.164Z,45.17
2019-02-19T21:37:50.341Z,45.57
2019-02-19T21:40:44.227Z,45.20
2019-02-19T21:43:14.319Z,46.37
2019-02-19T21:45:47.058Z,46.67
2019-02-19T21:48:21.489Z,47.20
2019-02-19T21:50:50.813Z,46.10
2019-02-19T21:53:30.439Z,48.83
2019-02-19T21:56:04.280Z,49.17
2019-02-19T21:58:44.253Z,50.00
2019-02-19T22:01:12.464Z,48.50
2019-02-19T22:03:41.409Z,49.83
2019-02-19T22:06:09.888Z,51.03
2019-02-19T22:08:38.614Z,47.97
2019-02-19T22:11:10.428Z,45.83
2019-02-19T22:13:38.665Z,47.97
2019-02-19T22:16:07.572Z,48.50
2019-02-19T22:18:36.510Z,47.87
2019-02-19T22:21:19.553Z,49.37
2019-02-19T22:23:50.129Z,48.03
2019-02-19T22:26:18.929Z,48.37
2019-02-19T22:28:47.940Z,44.40
2019-02-19T22:31:16.850Z,46.90
2019-02-19T22:33:49.374Z,44.27
2019-02-19T22:36:22.391Z,42.63
2019-02-19T22:39:03.086Z,44.37
2019-02-19T22:41:35.944Z,43.70
2019-02-19T22:44:13.663Z,44.03
2019-02-19T22:46:52.660Z,45.57
2019-02-19T22:49:20.530Z,42.23
2019-02-19T22:52:12.530Z,41.20
2019-02-19T22:55:05.225Z,44.57
2019-02-19T22:57:38.308Z,43.13
2019-02-19T23:00:13.897Z,47.10
2019-02-19T23:03:07.450Z,50.30
2019-02-19T23:05:44.372Z,52.37
2019-02-19T23:08:15.492Z,50.23
2019-02-19T23:10:44.015Z,58.23
2019-02-19T23:13:19.241Z,56.83
2019-02-19T23:15:49.303Z,51.50
2019-02-19T23:18:18.085Z,55.80
2019-02-19T23:20:47.786Z,51.20
2019-02-19T23:23:21.286Z,56.00
2019-02-19T23:25:54.260Z,50.67
2019-02-19T23:28:23.301Z,52.43
2019-02-19T23:31:01.364Z,49.93
2019-02-19T23:33:40.370Z,46.37
2019-02-19T23:36:22.347Z,46.80
2019-02-19T23:39:04.739Z,44.63
2019-02-19T23:41:41.555Z,47.47
2019-02-19T23:44:09.652Z,43.03
2019-02-19T23:46:41.415Z,48.00
2019-02-19T23:49:12.310Z,45.23
2019-02-19T23:51:45.679Z,45.30
2019-02-19T23:54:14.604Z,46.37
2019-02-19T23:56:46.493Z,47.73
2019-02-19T23:59:34.483Z,44.90
